createdAt,value
2023-01-23T00:00:39.017Z,57.80
2023-01-23T00:02:43.029Z,57.34
2023-01-23T00:04:44.878Z,57.46
2023-01-23T00:06:47.192Z,57.13
2023-01-23T00:08:48.798Z,57.14
2023-01-23T00:10:50.413Z,57.47
2023-01-23T00:12:53.381Z,57.30
2023-01-23T00:14:56.936Z,57.16
2023-01-23T00:17:00.243Z,57.89
2023-01-23T00:19:05.786Z,57.46
2023-01-23T00:21:13.145Z,57.29
2023-01-23T00:23:14.794Z,57.26
2023-01-23T00:25:16.845Z,57.51
2023-01-23T00:27:19.898Z,57.33
2023-01-23T00:29:21.694Z,57.29
2023-01-23T00:31:26.898Z,57.62
2023-01-23T00:33:28.687Z,57.60
2023-01-23T00:35:30.381Z,57.69
2023-01-23T00:37:32.190Z,57.79
2023-01-23T00:39:34.010Z,57.85
2023-01-23T00:41:41.388Z,57.72
2023-01-23T00:43:42.998Z,57.55
2023-01-23T00:45:45.309Z,57.73
2023-01-23T00:47:47.767Z,57.25
2023-01-23T00:49:49.529Z,57.68
2023-01-23T00:51:51.625Z,57.74
2023-01-23T00:53:53.392Z,57.43
2023-01-23T00:55:56.164Z,57.47
2023-01-23T00:57:59.733Z,57.52
2023-01-23T01:00:01.840Z,57.67
2023-01-23T01:02:06.890Z,57.38
2023-01-23T01:04:09.153Z,57.42
2023-01-23T01:06:12.053Z,57.20
2023-01-23T01:08:13.850Z,57.60
2023-01-23T01:10:18.491Z,57.34
2023-01-23T01:12:20.461Z,57.52
2023-01-23T01:14:26.412Z,57.88
2023-01-23T01:16:28.324Z,57.56
2023-01-23T01:18:33.086Z,57.61
2023-01-23T01:20:34.882Z,57.94
2023-01-23T01:22:38.534Z,57.75
2023-01-23T01:24:42.252Z,57.75
2023-01-23T01:26:44.504Z,57.13
2023-01-23T01:28:46.154Z,57.37
2023-01-23T01:30:49.207Z,57.84
2023-01-23T01:32:50.850Z,57.42
2023-01-23T01:34:52.743Z,57.97
2023-01-23T01:36:54.484Z,57.88
2023-01-23T01:38:56.140Z,57.96
2023-01-23T01:40:59.881Z,57.38
2023-01-23T01:43:05.192Z,57.78
2023-01-23T01:45:46.456Z,57.87
2023-01-23T01:47:48.201Z,57.49
2023-01-23T01:50:14.636Z,57.55
2023-01-23T01:52:22.104Z,57.51
2023-01-23T01:54:34.709Z,57.47
2023-01-23T01:56:44.079Z,57.87
2023-01-23T01:58:49.072Z,58.02
2023-01-23T02:00:50.994Z,57.86
2023-01-23T02:03:03.670Z,57.58
2023-01-23T02:05:13.327Z,58.09
2023-01-23T02:07:24.070Z,57.50
2023-01-23T02:09:26.880Z,57.87
2023-01-23T02:11:28.926Z,58.00
2023-01-23T02:13:36.848Z,57.65
2023-01-23T02:15:40.029Z,57.94
2023-01-23T02:17:42.311Z,57.82
2023-01-23T02:20:21.565Z,58.18
2023-01-23T02:23:03.152Z,57.58
2023-01-23T02:25:26.002Z,57.73
2023-01-23T02:27:27.737Z,57.61
2023-01-23T02:29:41.050Z,57.47
2023-01-23T02:31:45.896Z,58.03
2023-01-23T02:33:53.990Z,57.81
2023-01-23T02:35:59.427Z,58.01
2023-01-23T02:38:05.096Z,57.83
2023-01-23T02:40:07.823Z,58.09
2023-01-23T02:42:10.521Z,57.60
2023-01-23T02:44:31.399Z,58.07
2023-01-23T02:46:36.505Z,57.96
2023-01-23T02:48:42.664Z,57.64
2023-01-23T02:50:47.132Z,57.84
2023-01-23T02:52:50.994Z,57.89
2023-01-23T02:54:53.988Z,57.76
2023-01-23T02:56:57.282Z,58.08
2023-01-23T02:59:18.373Z,57.88
2023-01-23T03:01:20.431Z,57.86
2023-01-23T03:03:22.877Z,57.84
2023-01-23T03:05:24.619Z,58.00
2023-01-23T03:07:30.224Z,58.07
2023-01-23T03:09:32.099Z,58.04
2023-01-23T03:11:35.483Z,57.51
2023-01-23T03:13:49.096Z,58.08
2023-01-23T03:15:53.143Z,58.26
2023-01-23T03:17:54.800Z,58.02
2023-01-23T03:19:59.288Z,58.33
2023-01-23T03:22:03.409Z,58.04
2023-01-23T03:24:12.183Z,58.47
2023-01-23T03:26:15.139Z,58.49
2023-01-23T03:28:40.717Z,58.02
2023-01-23T03:30:45.395Z,58.25
2023-01-23T03:32:50.035Z,58.11
2023-01-23T03:34:51.665Z,57.93
2023-01-23T03:36:54.079Z,58.19
2023-01-23T03:39:14.083Z,58.66
2023-01-23T03:41:27.768Z,57.92
2023-01-23T03:43:37.332Z,58.16
2023-01-23T03:45:40.592Z,57.89
2023-01-23T03:47:42.501Z,58.51
2023-01-23T03:49:44.291Z,58.16
2023-01-23T03:51:46.208Z,58.37
2023-01-23T03:53:47.729Z,57.96
2023-01-23T03:55:50.930Z,57.82
2023-01-23T03:57:53.248Z,58.25
2023-01-23T04:00:01.059Z,58.46
2023-01-23T04:02:15.152Z,58.24
2023-01-23T04:04:16.741Z,58.56
2023-01-23T04:06:20.538Z,57.96
2023-01-23T04:08:23.423Z,57.88
2023-01-23T04:10:25.604Z,58.17
2023-01-23T04:12:31.981Z,58.49
2023-01-23T04:14:37.580Z,58.27
2023-01-23T04:16:39.833Z,58.21
2023-01-23T04:18:41.819Z,57.93
2023-01-23T04:20:43.635Z,57.88
2023-01-23T04:22:47.864Z,57.82
2023-01-23T04:24:49.891Z,58.09
2023-01-23T04:26:51.933Z,57.84
2023-01-23T04:28:53.556Z,58.60
2023-01-23T04:30:55.587Z,58.13
2023-01-23T04:33:03.960Z,58.55
2023-01-23T04:35:08.786Z,58.35
2023-01-23T04:37:13.037Z,57.69
2023-01-23T04:39:15.472Z,58.54
2023-01-23T04:41:26.189Z,58.36
2023-01-23T04:43:35.968Z,58.06
2023-01-23T04:45:44.090Z,57.90
2023-01-23T04:48:05.189Z,58.23
2023-01-23T04:50:10.165Z,57.90
2023-01-23T04:52:13.308Z,58.12
2023-01-23T04:54:21.207Z,57.85
2023-01-23T04:56:22.939Z,58.45
2023-01-23T04:58:25.624Z,58.26
2023-01-23T05:00:33.601Z,58.47
2023-01-23T05:02:37.091Z,58.27
2023-01-23T05:04:39.042Z,58.58
2023-01-23T05:06:40.768Z,58.46
2023-01-23T05:08:42.258Z,58.01
2023-01-23T05:10:51.120Z,57.81
2023-01-23T05:12:54.617Z,58.12
2023-01-23T05:14:56.707Z,58.20
2023-01-23T05:17:07.087Z,57.98
2023-01-23T05:19:13.954Z,58.44
2023-01-23T05:21:16.202Z,58.22
2023-01-23T05:23:18.633Z,58.23
2023-01-23T05:25:27.608Z,58.08
2023-01-23T05:27:31.085Z,58.30
2023-01-23T05:29:35.130Z,58.19
2023-01-23T05:31:42.314Z,58.16
2023-01-23T05:34:22.393Z,58.20
2023-01-23T05:36:24.221Z,57.84
2023-01-23T05:38:26.090Z,58.00
2023-01-23T05:40:28.783Z,58.20
2023-01-23T05:42:50.732Z,58.42
2023-01-23T05:45:12.787Z,58.01
2023-01-23T05:47:17.028Z,58.37
2023-01-23T05:49:18.803Z,57.87
2023-01-23T05:51:22.435Z,58.17
2023-01-23T05:53:25.134Z,58.45
2023-01-23T05:55:27.109Z,58.11
2023-01-23T05:57:30.199Z,58.08
2023-01-23T05:59:54.594Z,58.23
2023-01-23T06:02:17.901Z,58.17
2023-01-23T06:04:42.646Z,57.85
2023-01-23T06:06:59.826Z,57.75
2023-01-23T06:09:02.335Z,58.26
2023-01-23T06:11:07.848Z,58.20
2023-01-23T06:13:09.714Z,58.13
2023-01-23T06:15:12.456Z,58.34
2023-01-23T06:17:16.130Z,57.83
2023-01-23T06:19:18.451Z,57.92
2023-01-23T06:21:20.231Z,57.97
2023-01-23T06:23:22.616Z,57.67
2023-01-23T06:25:24.732Z,57.83
2023-01-23T06:27:28.477Z,58.06
2023-01-23T06:29:30.083Z,57.88
2023-01-23T06:31:32.761Z,57.80
2023-01-23T06:33:38.955Z,57.73
2023-01-23T06:35:46.034Z,57.99
2023-01-23T06:37:48.062Z,57.95
2023-01-23T06:39:51.908Z,58.29
2023-01-23T06:41:58.121Z,58.00
2023-01-23T06:43:59.920Z,57.51
2023-01-23T06:46:03.013Z,57.77
2023-01-23T06:48:05.783Z,57.92
2023-01-23T06:50:08.224Z,57.63
2023-01-23T06:52:15.328Z,58.36
2023-01-23T06:54:20.330Z,57.80
2023-01-23T06:56:23.985Z,58.27
2023-01-23T06:58:27.557Z,58.03
2023-01-23T07:00:29.205Z,57.84
2023-01-23T07:02:33.536Z,58.01
2023-01-23T07:04:35.571Z,57.79
2023-01-23T07:06:37.557Z,57.87
2023-01-23T07:08:40.321Z,58.15
2023-01-23T07:10:42.658Z,58.14
2023-01-23T07:12:44.326Z,57.83
2023-01-23T07:14:45.927Z,58.31
2023-01-23T07:16:51.896Z,57.84
2023-01-23T07:18:57.095Z,58.16
2023-01-23T07:20:59.261Z,58.03
2023-01-23T07:23:01.791Z,58.14
2023-01-23T07:25:05.301Z,58.01
2023-01-23T07:27:07.125Z,57.93
2023-01-23T07:29:09.002Z,58.08
2023-01-23T07:31:10.702Z,57.70
2023-01-23T07:33:12.620Z,58.01
2023-01-23T07:35:14.193Z,57.95
2023-01-23T07:37:16.058Z,58.21
2023-01-23T07:39:17.944Z,58.31
2023-01-23T07:41:22.018Z,58.48
2023-01-23T07:43:23.683Z,58.42
2023-01-23T07:45:25.962Z,58.27
2023-01-23T07:47:27.819Z,57.79
2023-01-23T07:49:29.535Z,58.14
2023-01-23T07:51:31.123Z,58.39
2023-01-23T07:53:33.030Z,58.40
2023-01-23T07:55:38.194Z,58.33
2023-01-23T07:57:39.861Z,58.08
2023-01-23T07:59:41.528Z,58.29
2023-01-23T08:01:43.447Z,57.99
2023-01-23T08:03:48.243Z,58.41
2023-01-23T08:05:50.607Z,58.36
2023-01-23T08:08:07.393Z,57.93
2023-01-23T08:10:14.345Z,58.15
2023-01-23T08:12:16.056Z,57.92
2023-01-23T08:14:17.633Z,57.90
2023-01-23T08:16:19.433Z,58.29
2023-01-23T08:18:21.052Z,57.73
2023-01-23T08:20:23.277Z,58.01
2023-01-23T08:22:24.981Z,58.46
2023-01-23T08:24:26.560Z,58.60
2023-01-23T08:26:28.281Z,58.07
2023-01-23T08:28:29.966Z,58.41
2023-01-23T08:30:31.653Z,57.96
2023-01-23T08:32:35.263Z,58.29
2023-01-23T08:34:36.945Z,58.36
2023-01-23T08:36:38.514Z,57.95
2023-01-23T08:38:40.324Z,58.23
2023-01-23T08:40:42.177Z,58.32
2023-01-23T08:42:43.959Z,57.98
2023-01-23T08:44:45.609Z,58.04
2023-01-23T08:46:47.108Z,58.32
2023-01-23T08:48:52.284Z,58.07
2023-01-23T08:51:02.274Z,58.64
2023-01-23T08:53:04.298Z,58.18
2023-01-23T08:55:06.723Z,58.06
2023-01-23T08:57:11.120Z,58.08
2023-01-23T08:59:12.931Z,58.38
2023-01-23T09:01:19.404Z,58.39
2023-01-23T09:03:23.705Z,58.22
2023-01-23T09:05:25.595Z,57.99
2023-01-23T09:07:27.222Z,58.08
2023-01-23T09:09:32.044Z,58.48
2023-01-23T09:11:34.065Z,58.39
2023-01-23T09:13:36.782Z,58.51
2023-01-23T09:15:39.871Z,58.56
2023-01-23T09:17:41.691Z,58.43
2023-01-23T09:19:43.219Z,58.68
2023-01-23T09:21:45.024Z,58.75
2023-01-23T09:23:46.588Z,58.51
2023-01-23T09:25:48.478Z,58.33
2023-01-23T09:27:50.513Z,58.42
2023-01-23T09:29:53.221Z,58.90
2023-01-23T09:31:54.960Z,58.63
2023-01-23T09:33:56.739Z,58.36
2023-01-23T09:35:59.039Z,58.81
2023-01-23T09:38:01.048Z,58.74
2023-01-23T09:40:02.685Z,58.60
2023-01-23T09:42:09.684Z,58.57
2023-01-23T09:44:43.560Z,58.52
2023-01-23T09:46:54.006Z,58.80
2023-01-23T09:49:14.295Z,58.88
2023-01-23T09:51:23.714Z,59.04
2023-01-23T09:53:31.184Z,58.72
2023-01-23T09:55:43.044Z,59.24
2023-01-23T09:57:52.892Z,59.27
2023-01-23T10:00:13.543Z,59.33
2023-01-23T10:02:21.178Z,59.20
2023-01-23T10:04:25.525Z,59.16
2023-01-23T10:06:31.738Z,59.10
2023-01-23T10:09:07.072Z,58.91
2023-01-23T10:11:22.109Z,58.90
2023-01-23T10:14:08.022Z,58.71
2023-01-23T10:16:25.309Z,58.87
2023-01-23T10:18:46.981Z,58.85
2023-01-23T10:21:13.738Z,58.62
2023-01-23T10:23:41.964Z,58.76
2023-01-23T10:25:44.254Z,58.57
2023-01-23T10:27:48.265Z,59.08
2023-01-23T10:29:57.935Z,58.96
2023-01-23T10:32:03.923Z,58.74
2023-01-23T10:34:26.088Z,58.67
2023-01-23T10:36:54.748Z,58.35
2023-01-23T10:39:04.300Z,58.48
2023-01-23T10:41:14.721Z,58.52
2023-01-23T10:43:21.133Z,58.24
2023-01-23T10:45:23.148Z,58.35
2023-01-23T10:47:52.011Z,58.65
2023-01-23T10:49:56.277Z,58.56
2023-01-23T10:51:58.573Z,58.86
2023-01-23T10:54:31.347Z,58.58
2023-01-23T10:56:58.378Z,58.71
2023-01-23T10:59:02.257Z,58.75
2023-01-23T11:01:05.654Z,58.66
2023-01-23T11:03:22.565Z,59.20
2023-01-23T11:05:55.116Z,59.18
2023-01-23T11:08:04.145Z,59.03
2023-01-23T11:10:11.792Z,59.02
2023-01-23T11:12:25.580Z,59.29
2023-01-23T11:14:27.643Z,59.17
2023-01-23T11:16:29.806Z,59.23
2023-01-23T11:18:39.709Z,59.40
2023-01-23T11:20:55.690Z,59.76
2023-01-23T11:23:17.600Z,59.40
2023-01-23T11:25:32.530Z,59.59
2023-01-23T11:27:34.173Z,59.27
2023-01-23T11:30:10.864Z,59.52
2023-01-23T11:32:13.849Z,59.55
2023-01-23T11:34:19.573Z,59.71
2023-01-23T11:36:44.592Z,59.49
2023-01-23T11:38:53.263Z,58.91
2023-01-23T11:40:55.171Z,59.45
2023-01-23T11:42:57.041Z,59.53
2023-01-23T11:44:59.970Z,59.27
2023-01-23T11:47:18.084Z,59.46
2023-01-23T11:49:37.955Z,59.28
2023-01-23T11:52:02.351Z,59.70
2023-01-23T11:54:33.682Z,59.35
2023-01-23T11:57:02.020Z,59.88
2023-01-23T11:59:18.649Z,60.11
2023-01-23T12:02:02.511Z,60.20
2023-01-23T12:04:45.420Z,60.10
2023-01-23T12:06:56.801Z,59.95
2023-01-23T12:09:21.644Z,59.27
2023-01-23T12:11:24.632Z,59.37
2023-01-23T12:14:04.852Z,60.34
2023-01-23T12:16:27.480Z,60.50
2023-01-23T12:18:56.726Z,60.84
2023-01-23T12:21:30.794Z,60.08
2023-01-23T12:23:52.224Z,59.85
2023-01-23T12:26:20.837Z,60.71
2023-01-23T12:28:56.748Z,59.91
2023-01-23T12:31:11.876Z,60.08
2023-01-23T12:33:27.991Z,59.44
2023-01-23T12:35:55.570Z,58.87
2023-01-23T12:38:14.288Z,59.26
2023-01-23T12:40:27.349Z,58.39
2023-01-23T12:42:42.382Z,58.89
2023-01-23T12:45:09.666Z,59.09
2023-01-23T12:47:19.958Z,58.36
2023-01-23T12:49:33.500Z,57.62
2023-01-23T12:51:40.333Z,57.44
2023-01-23T12:53:45.596Z,57.44
2023-01-23T12:55:53.405Z,57.58
2023-01-23T12:58:00.097Z,57.79
2023-01-23T13:00:31.275Z,57.50
2023-01-23T13:02:45.118Z,56.61
2023-01-23T13:05:02.931Z,55.98
2023-01-23T13:07:26.465Z,55.67
2023-01-23T13:09:39.858Z,55.83
2023-01-23T13:12:20.473Z,55.50
2023-01-23T13:14:47.496Z,55.75
2023-01-23T13:16:56.995Z,55.69
2023-01-23T13:19:19.818Z,55.36
2023-01-23T13:21:43.524Z,55.86
2023-01-23T13:23:45.747Z,55.73
2023-01-23T13:25:51.170Z,55.73
2023-01-23T13:28:01.967Z,54.97
2023-01-23T13:30:28.074Z,55.55
2023-01-23T13:32:37.129Z,55.86
2023-01-23T13:34:39.288Z,55.52
2023-01-23T13:36:41.197Z,55.49
2023-01-23T13:38:42.791Z,55.37
2023-01-23T13:41:04.318Z,54.46
2023-01-23T13:43:47.354Z,54.80
2023-01-23T13:45:50.787Z,54.45
2023-01-23T14:23:46.383Z,53.86
2023-01-23T14:25:48.491Z,53.98
2023-01-23T14:28:03.047Z,53.46
2023-01-23T14:30:18.982Z,53.66
2023-01-23T14:32:24.846Z,53.89
2023-01-23T14:34:26.908Z,54.00
2023-01-23T14:36:30.218Z,53.50
2023-01-23T14:38:34.370Z,53.76
2023-01-23T14:40:50.226Z,53.55
2023-01-23T14:43:00.041Z,53.38
2023-01-23T14:45:03.029Z,53.58
2023-01-23T14:47:17.966Z,53.71
2023-01-23T14:49:26.391Z,53.57
2023-01-23T14:51:28.735Z,53.36
2023-01-23T14:53:30.619Z,53.77
2023-01-23T14:55:37.764Z,53.17
2023-01-23T14:57:40.180Z,53.31
2023-01-23T14:59:43.544Z,53.60
2023-01-23T15:01:54.081Z,53.54
2023-01-23T15:04:02.226Z,53.49
2023-01-23T15:06:10.085Z,53.95
2023-01-23T15:08:27.685Z,53.53
2023-01-23T15:10:41.236Z,54.17
2023-01-23T15:13:02.591Z,53.50
2023-01-23T15:15:04.643Z,53.71
2023-01-23T15:17:17.106Z,53.87
2023-01-23T15:19:24.323Z,53.68
2023-01-23T15:21:35.761Z,54.03
2023-01-23T15:23:41.136Z,53.94
2023-01-23T15:25:45.271Z,53.95
2023-01-23T15:27:47.884Z,54.23
2023-01-23T15:29:49.802Z,53.86
2023-01-23T15:31:53.585Z,53.85
2023-01-23T15:33:57.873Z,53.86
2023-01-23T15:36:27.577Z,53.52
2023-01-23T15:38:29.319Z,53.94
2023-01-23T15:40:35.327Z,54.14
2023-01-23T15:42:36.930Z,54.17
2023-01-23T15:44:39.234Z,54.05
2023-01-23T15:46:41.015Z,54.22
2023-01-23T15:48:45.550Z,54.32
2023-01-23T15:50:47.459Z,54.04
2023-01-23T15:52:54.610Z,54.00
2023-01-23T15:55:05.367Z,53.88
2023-01-23T15:57:08.579Z,54.00
2023-01-23T15:59:18.468Z,53.88
2023-01-23T16:01:20.163Z,54.01
2023-01-23T16:03:21.749Z,54.19
2023-01-23T16:05:26.255Z,54.38
2023-01-23T16:07:36.662Z,54.26
2023-01-23T16:09:40.420Z,53.95
2023-01-23T16:11:42.114Z,54.30
2023-01-23T16:13:44.435Z,54.39
2023-01-23T16:15:46.451Z,54.09
2023-01-23T16:17:48.894Z,54.15
2023-01-23T16:19:50.719Z,54.27
2023-01-23T16:22:03.404Z,54.10
2023-01-23T16:24:06.715Z,53.97
2023-01-23T16:26:23.280Z,54.07
2023-01-23T16:28:29.409Z,54.06
2023-01-23T16:30:33.713Z,54.31
2023-01-23T16:32:35.522Z,54.35
2023-01-23T16:34:37.348Z,54.50
2023-01-23T16:36:39.171Z,54.26
2023-01-23T16:38:47.565Z,54.41
2023-01-23T16:40:53.222Z,54.14
2023-01-23T16:42:55.956Z,54.27
2023-01-23T16:44:59.291Z,54.27
2023-01-23T16:47:01.092Z,54.48
2023-01-23T16:49:02.751Z,54.28
2023-01-23T16:51:11.815Z,54.53
2023-01-23T16:53:36.984Z,54.29
2023-01-23T16:55:41.142Z,54.47
2023-01-23T16:57:43.027Z,54.57
2023-01-23T16:59:45.705Z,54.39
2023-01-23T17:01:50.920Z,54.67
2023-01-23T17:03:59.893Z,54.56
2023-01-23T17:06:02.035Z,54.50
2023-01-23T17:08:21.771Z,54.54
2023-01-23T17:10:41.260Z,54.45
2023-01-23T17:12:52.868Z,54.40
2023-01-23T17:14:55.265Z,54.50
2023-01-23T17:17:03.131Z,54.76
2023-01-23T17:19:16.823Z,54.71
2023-01-23T17:21:21.786Z,54.52
2023-01-23T17:23:25.460Z,54.52
2023-01-23T17:25:27.475Z,54.58
2023-01-23T17:27:30.158Z,54.84
2023-01-23T17:29:31.851Z,54.71
2023-01-23T17:31:33.811Z,54.59
2023-01-23T17:33:35.569Z,54.95
2023-01-23T17:35:37.659Z,54.89
2023-01-23T17:37:42.449Z,54.87
2023-01-23T17:39:43.975Z,54.99
2023-01-23T17:41:52.736Z,54.97
2023-01-23T17:43:54.952Z,55.04
2023-01-23T17:45:57.428Z,55.08
2023-01-23T17:47:59.218Z,54.95
2023-01-23T17:50:01.356Z,55.19
2023-01-23T17:52:06.601Z,55.07
2023-01-23T17:54:19.584Z,55.00
2023-01-23T17:56:21.798Z,55.08
2023-01-23T17:58:23.683Z,55.03
2023-01-23T18:00:29.318Z,55.30
2023-01-23T18:02:32.255Z,54.92
2023-01-23T18:04:34.067Z,54.90
2023-01-23T18:06:36.137Z,55.07
2023-01-23T18:08:45.362Z,55.03
2023-01-23T18:10:51.147Z,55.18
2023-01-23T18:13:38.096Z,54.93
2023-01-23T18:15:53.985Z,55.06
2023-01-23T18:18:09.068Z,55.11
2023-01-23T18:20:22.524Z,55.08
2023-01-23T18:22:24.595Z,55.28
2023-01-23T18:24:33.178Z,55.31
2023-01-23T18:26:58.688Z,55.22
2023-01-23T18:29:21.989Z,55.19
2023-01-23T18:31:38.918Z,54.97
2023-01-23T18:34:01.854Z,55.22
2023-01-23T18:36:22.113Z,55.19
2023-01-23T18:38:41.699Z,55.08
2023-01-23T18:41:02.015Z,55.19
2023-01-23T18:43:42.525Z,55.26
2023-01-23T18:45:44.642Z,55.16
2023-01-23T18:47:46.616Z,55.31
2023-01-23T18:49:48.606Z,55.21
2023-01-23T18:52:06.577Z,55.21
2023-01-23T18:54:29.452Z,55.22
2023-01-23T18:56:43.253Z,55.20
2023-01-23T18:59:13.990Z,55.13
2023-01-23T19:01:24.942Z,55.35
2023-01-23T19:03:44.289Z,55.18
2023-01-23T19:05:48.711Z,55.37
2023-01-23T19:07:51.054Z,55.25
2023-01-23T19:09:53.061Z,55.17
2023-01-23T19:12:25.744Z,55.18
2023-01-23T19:15:01.611Z,55.32
2023-01-23T19:17:21.229Z,55.24
2023-01-23T19:19:47.433Z,55.21
2023-01-23T19:21:57.948Z,55.10
2023-01-23T19:24:01.646Z,55.23
2023-01-23T19:26:04.275Z,55.19
2023-01-23T19:28:07.216Z,55.16
2023-01-23T19:30:12.261Z,55.24
2023-01-23T19:32:14.131Z,55.30
2023-01-23T19:34:15.870Z,55.17
2023-01-23T19:36:18.194Z,55.15
2023-01-23T19:38:21.918Z,55.22
2023-01-23T19:40:27.202Z,55.10
2023-01-23T19:42:38.765Z,55.30
2023-01-23T19:44:50.732Z,55.09
2023-01-23T19:46:52.924Z,55.17
2023-01-23T19:48:57.998Z,55.13
2023-01-23T19:50:59.723Z,55.58
2023-01-23T19:53:03.936Z,55.20
2023-01-23T19:55:05.586Z,55.20
2023-01-23T19:57:07.425Z,55.32
2023-01-23T19:59:10.096Z,55.13
2023-01-23T20:01:33.406Z,55.28
2023-01-23T20:03:35.716Z,55.16
2023-01-23T20:05:37.393Z,55.21
2023-01-23T20:07:39.222Z,55.04
2023-01-23T20:09:41.171Z,54.92
2023-01-23T20:11:43.485Z,54.94
2023-01-23T20:13:48.286Z,55.01
2023-01-23T20:15:51.309Z,55.15
2023-01-23T20:18:04.820Z,55.11
2023-01-23T20:20:11.391Z,55.17
2023-01-23T20:22:13.113Z,55.04
2023-01-23T20:24:18.001Z,55.09
2023-01-23T20:26:21.939Z,55.02
2023-01-23T20:28:23.539Z,55.23
2023-01-23T20:30:33.175Z,55.07
2023-01-23T20:32:35.308Z,55.14
2023-01-23T20:34:37.165Z,55.22
2023-01-23T20:36:39.213Z,55.06
2023-01-23T20:38:41.430Z,55.10
2023-01-23T20:40:44.337Z,55.08
2023-01-23T20:42:47.060Z,55.13
2023-01-23T20:44:48.936Z,55.29
2023-01-23T20:46:50.570Z,55.20
2023-01-23T20:48:52.269Z,55.25
2023-01-23T20:50:56.320Z,55.06
2023-01-23T20:53:33.120Z,54.97
2023-01-23T20:55:34.915Z,55.04
2023-01-23T20:57:55.295Z,55.29
2023-01-23T20:59:59.881Z,55.24
2023-01-23T21:02:20.320Z,55.11
2023-01-23T21:04:24.427Z,55.26
2023-01-23T21:06:25.949Z,55.23
2023-01-23T21:08:27.569Z,55.09
2023-01-23T21:10:29.753Z,55.13
2023-01-23T21:12:31.409Z,55.12
2023-01-23T21:14:35.652Z,55.11
2023-01-23T21:16:37.519Z,55.22
2023-01-23T21:18:46.284Z,54.95
2023-01-23T21:20:47.876Z,54.97
2023-01-23T21:22:52.708Z,55.08
2023-01-23T21:24:54.388Z,55.24
2023-01-23T21:27:02.374Z,54.93
2023-01-23T21:29:04.203Z,54.77
2023-01-23T21:31:15.237Z,55.04
2023-01-23T21:33:17.019Z,55.06
2023-01-23T21:35:19.497Z,54.98
2023-01-23T21:37:24.520Z,55.08
2023-01-23T21:39:26.453Z,55.07
2023-01-23T21:41:31.028Z,55.25
2023-01-23T21:43:33.749Z,55.19
2023-01-23T21:45:35.550Z,55.29
2023-01-23T21:47:37.114Z,55.51
2023-01-23T21:49:38.784Z,55.00
2023-01-23T21:51:40.434Z,55.07
2023-01-23T21:53:44.126Z,55.08
2023-01-23T21:55:51.696Z,55.15
2023-01-23T21:57:56.150Z,55.08
2023-01-23T22:00:19.683Z,55.11
2023-01-23T22:02:21.426Z,55.19
2023-01-23T22:04:48.233Z,54.99
2023-01-23T22:06:55.737Z,55.34
2023-01-23T22:08:58.371Z,55.40
2023-01-23T22:11:07.591Z,55.26
2023-01-23T22:13:09.349Z,55.21
2023-01-23T22:15:11.515Z,54.98
2023-01-23T22:17:13.027Z,55.27
2023-01-23T22:19:16.483Z,55.09
2023-01-23T22:21:18.116Z,55.34
2023-01-23T22:23:24.217Z,55.45
2023-01-23T22:25:25.873Z,55.27
2023-01-23T22:27:27.557Z,55.23
2023-01-23T22:29:29.340Z,55.39
2023-01-23T22:31:31.101Z,55.34
2023-01-23T22:33:40.377Z,55.31
2023-01-23T22:35:43.265Z,55.16
2023-01-23T22:37:47.663Z,55.38
2023-01-23T22:39:51.564Z,55.14
2023-01-23T22:41:53.327Z,55.10
2023-01-23T22:43:56.833Z,55.42
2023-01-23T22:46:08.510Z,55.46
2023-01-23T22:48:10.013Z,55.24
2023-01-23T22:50:11.800Z,55.29
2023-01-23T22:52:13.349Z,55.18
2023-01-23T22:54:15.830Z,55.30
2023-01-23T22:56:17.472Z,55.60
2023-01-23T22:58:19.064Z,55.24
2023-01-23T23:00:20.911Z,55.38
2023-01-23T23:02:22.447Z,55.16
2023-01-23T23:04:26.740Z,55.54
2023-01-23T23:06:28.847Z,55.33
2023-01-23T23:08:31.094Z,55.35
2023-01-23T23:10:32.954Z,55.38
2023-01-23T23:12:34.611Z,55.31
2023-01-23T23:14:37.556Z,55.36
2023-01-23T23:16:39.324Z,55.32
2023-01-23T23:18:41.850Z,55.32
2023-01-23T23:20:43.461Z,55.42
2023-01-23T23:22:45.216Z,55.39
2023-01-23T23:24:46.867Z,55.23
2023-01-23T23:26:48.824Z,55.28
2023-01-23T23:28:50.531Z,55.24
2023-01-23T23:30:52.999Z,55.49
2023-01-23T23:32:54.675Z,55.08
2023-01-23T23:34:59.115Z,55.31
2023-01-23T23:37:01.079Z,55.41
2023-01-23T23:39:02.817Z,55.25
2023-01-23T23:41:06.989Z,55.17
2023-01-23T23:43:08.799Z,55.07
2023-01-23T23:45:13.463Z,55.15
2023-01-23T23:47:14.991Z,55.36
2023-01-23T23:49:16.747Z,55.16
2023-01-23T23:51:19.374Z,55.05
2023-01-23T23:53:21.628Z,55.40
2023-01-23T23:55:23.577Z,55.44
2023-01-23T23:57:25.283Z,55.11
2023-01-23T23:59:27.048Z,55.43
